Sligo Airport - TAF
(Terminal Area Forecast)

Issued at 03:51 UTC on Sun. 20-Aug-17

--- METARS(SA) ---

METAR EISG(SLIGO) 200330Z AUTO 12001KT 9999 BKN043 11/09 Q1020 =

--- TAFS() ---

TAF EISG(SLIGO) 200200Z 2003/2012 26010KT 9999 BKN040 BECMG

2003/2006 15007KT PROB40 TEMPO 2003/2006 BKN014 PROB40 TEMPO 2005/2007 3000

BR =

--- SIGMETS(WS) ---

IE - No VALID SIGMETS/Warnings FOR THIS AREA

--- SIGMETS Volcanic(WV) ---

IE - No VALID SIGMETS/Warnings FOR THIS AREA

--- SIGMETS(WS) ---

UK - No VALID SIGMETS/Warnings FOR THIS AREA

Sligo Airport - METARs

Latest METARs for Sligo and Donegal Airports - updated every 30 mins